createdAt,value
2018-11-26T00:00:35.153Z,66.70
2018-11-26T00:03:10.078Z,66.70
2018-11-26T00:05:40.420Z,66.80
2018-11-26T00:08:12.271Z,66.80
2018-11-26T00:11:49.421Z,66.90
2018-11-26T00:14:18.292Z,66.80
2018-11-26T00:16:47.210Z,66.90
2018-11-26T00:19:15.994Z,67.00
2018-11-26T00:21:44.805Z,67.40
2018-11-26T00:24:13.609Z,67.10
2018-11-26T00:26:42.464Z,67.20
2018-11-26T00:29:11.306Z,67.20
2018-11-26T00:31:40.116Z,67.40
2018-11-26T00:34:09.124Z,67.40
2018-11-26T00:36:38.049Z,67.40
2018-11-26T00:39:09.901Z,67.50
2018-11-26T00:41:38.785Z,67.60
2018-11-26T00:44:08.151Z,67.50
2018-11-26T00:46:36.960Z,67.70
2018-11-26T00:49:05.828Z,67.70
2018-11-26T00:51:37.935Z,67.80
2018-11-26T00:54:06.831Z,67.80
2018-11-26T00:56:35.663Z,68.50
2018-11-26T00:59:04.492Z,67.70
2018-11-26T01:01:33.292Z,67.70
2018-11-26T01:04:02.091Z,67.60
2018-11-26T01:06:31.331Z,67.80
2018-11-26T01:09:00.171Z,67.90
2018-11-26T01:11:28.959Z,67.80
2018-11-26T01:13:57.779Z,67.90
2018-11-26T01:16:26.667Z,67.80
2018-11-26T01:18:55.484Z,67.90
2018-11-26T01:21:24.329Z,67.90
2018-11-26T01:23:53.115Z,67.90
2018-11-26T01:26:21.899Z,68.00
2018-11-26T01:28:50.695Z,68.00
2018-11-26T01:31:19.486Z,68.10
2018-11-26T01:33:48.295Z,68.10
2018-11-26T01:36:17.288Z,68.20
2018-11-26T01:38:46.075Z,68.20
2018-11-26T01:41:14.927Z,68.20
2018-11-26T01:43:43.748Z,68.10
2018-11-26T01:46:12.545Z,68.20
2018-11-26T01:48:41.333Z,68.20
2018-11-26T01:51:10.155Z,68.30
2018-11-26T01:53:38.973Z,68.30
2018-11-26T01:56:07.763Z,68.40
2018-11-26T01:58:36.752Z,68.40
2018-11-26T02:01:05.797Z,68.40
2018-11-26T02:03:34.575Z,68.40
2018-11-26T02:06:03.394Z,68.40
2018-11-26T02:08:32.556Z,68.60
2018-11-26T02:11:01.360Z,68.60
2018-11-26T02:13:30.182Z,68.60
2018-11-26T02:15:59.028Z,68.60
2018-11-26T02:18:27.870Z,68.60
2018-11-26T02:20:57.150Z,68.40
2018-11-26T02:23:25.982Z,68.40
2018-11-26T02:25:54.789Z,68.40
2018-11-26T02:28:23.579Z,68.40
2018-11-26T02:30:52.407Z,68.30
2018-11-26T02:33:21.212Z,68.30
2018-11-26T02:35:50.034Z,68.20
2018-11-26T02:38:18.816Z,68.20
2018-11-26T02:40:47.613Z,68.30
2018-11-26T02:43:16.892Z,69.00
2018-11-26T02:45:45.707Z,68.20
2018-11-26T02:48:14.507Z,68.10
2018-11-26T02:50:43.303Z,68.00
2018-11-26T02:53:12.096Z,68.00
2018-11-26T02:55:40.896Z,67.90
2018-11-26T02:58:09.740Z,67.90
2018-11-26T03:00:41.383Z,67.80
2018-11-26T03:03:10.784Z,68.50
2018-11-26T03:05:39.728Z,67.80
2018-11-26T03:08:08.544Z,67.70
2018-11-26T03:10:37.783Z,67.60
2018-11-26T03:13:06.938Z,67.70
2018-11-26T03:15:35.760Z,67.70
2018-11-26T03:18:04.753Z,67.70
2018-11-26T03:20:33.554Z,68.40
2018-11-26T03:23:02.343Z,67.70
2018-11-26T03:25:31.422Z,67.90
2018-11-26T03:28:00.220Z,67.90
2018-11-26T03:30:29.059Z,68.00
2018-11-26T03:32:57.867Z,68.00
2018-11-26T03:35:26.724Z,68.00
2018-11-26T03:37:55.532Z,68.00
2018-11-26T03:40:24.349Z,68.00
2018-11-26T03:42:53.139Z,68.10
2018-11-26T03:45:21.947Z,68.10
2018-11-26T03:47:51.028Z,68.10
2018-11-26T03:50:19.824Z,68.10
2018-11-26T03:52:48.715Z,68.10
2018-11-26T03:55:17.515Z,68.90
2018-11-26T03:57:46.323Z,68.10
2018-11-26T04:00:16.516Z,68.10
2018-11-26T04:02:45.364Z,68.10
2018-11-26T04:05:14.210Z,68.10
2018-11-26T04:07:43.043Z,68.00
2018-11-26T04:10:13.322Z,68.10
2018-11-26T04:12:42.500Z,68.10
2018-11-26T04:15:14.887Z,68.10
2018-11-26T04:17:43.707Z,68.10
2018-11-26T04:20:12.508Z,68.10
2018-11-26T04:22:41.300Z,68.00
2018-11-26T04:25:10.524Z,68.60
2018-11-26T04:27:39.296Z,68.00
2018-11-26T04:30:11.396Z,67.90
2018-11-26T04:32:40.750Z,67.90
2018-11-26T04:35:10.004Z,67.90
2018-11-26T04:37:38.953Z,67.80
2018-11-26T04:40:10.306Z,67.80
2018-11-26T04:42:39.312Z,67.80
2018-11-26T04:45:10.752Z,67.70
2018-11-26T04:47:39.759Z,67.60
2018-11-26T04:50:11.644Z,67.50
2018-11-26T04:52:40.503Z,67.40
2018-11-26T04:55:11.074Z,67.40
2018-11-26T04:57:42.603Z,67.30
2018-11-26T05:00:13.079Z,67.20
2018-11-26T05:02:42.002Z,67.30
2018-11-26T05:05:12.360Z,67.20
2018-11-26T05:07:41.175Z,67.30
2018-11-26T05:10:12.822Z,68.10
2018-11-26T05:12:41.640Z,67.40
2018-11-26T05:15:12.512Z,67.30
2018-11-26T05:17:41.392Z,67.10
2018-11-26T05:20:13.485Z,67.10
2018-11-26T05:22:42.329Z,67.10
2018-11-26T05:25:11.899Z,67.10
2018-11-26T05:27:40.704Z,67.10
2018-11-26T05:30:11.444Z,67.10
2018-11-26T05:32:40.319Z,67.10
2018-11-26T05:35:11.455Z,67.00
2018-11-26T05:37:40.250Z,67.10
2018-11-26T05:40:10.978Z,67.10
2018-11-26T05:42:39.932Z,67.10
2018-11-26T05:45:13.190Z,67.20
2018-11-26T05:47:41.989Z,67.20
2018-11-26T05:50:12.381Z,67.40
2018-11-26T05:52:41.572Z,67.40
2018-11-26T05:55:15.771Z,67.60
2018-11-26T05:57:45.914Z,67.60
2018-11-26T06:00:18.414Z,67.60
2018-11-26T06:02:47.487Z,67.80
2018-11-26T06:05:16.295Z,67.70
2018-11-26T06:07:45.095Z,68.00
2018-11-26T06:10:13.940Z,68.00
2018-11-26T06:12:42.759Z,68.00
2018-11-26T06:15:13.899Z,68.10
2018-11-26T06:17:42.786Z,68.10
2018-11-26T06:20:12.824Z,68.10
2018-11-26T06:22:44.540Z,68.10
2018-11-26T06:25:21.430Z,68.10
2018-11-26T06:27:50.302Z,68.10
2018-11-26T06:30:19.975Z,68.10
2018-11-26T06:32:48.891Z,68.20
2018-11-26T06:35:22.316Z,68.20
2018-11-26T06:37:51.193Z,68.20
2018-11-26T06:40:20.007Z,68.30
2018-11-26T06:42:48.948Z,68.30
2018-11-26T06:45:22.544Z,68.30
2018-11-26T06:47:51.584Z,68.30
2018-11-26T06:50:21.389Z,68.30
2018-11-26T06:52:50.199Z,68.30
2018-11-26T06:55:20.511Z,68.30
2018-11-26T06:57:49.314Z,68.30
2018-11-26T07:00:19.830Z,68.40
2018-11-26T07:02:48.964Z,68.30
2018-11-26T07:05:20.275Z,68.30
2018-11-26T07:07:49.170Z,68.30
2018-11-26T07:10:19.236Z,69.00
2018-11-26T07:12:48.045Z,68.30
2018-11-26T07:15:19.930Z,68.20
2018-11-26T07:17:48.838Z,68.20
2018-11-26T07:20:19.092Z,68.20
2018-11-26T07:22:48.005Z,68.20
2018-11-26T07:25:18.482Z,68.10
2018-11-26T07:27:51.637Z,68.00
2018-11-26T07:30:25.267Z,68.10
2018-11-26T07:32:54.099Z,68.10
2018-11-26T07:35:22.923Z,68.00
2018-11-26T07:37:51.749Z,68.00
2018-11-26T07:40:22.233Z,68.00
2018-11-26T07:42:55.464Z,68.10
2018-11-26T07:45:24.274Z,68.00
2018-11-26T07:47:53.079Z,67.90
2018-11-26T07:50:21.935Z,67.90
2018-11-26T07:52:50.761Z,67.90
2018-11-26T07:55:20.832Z,67.80
2018-11-26T07:57:49.630Z,67.80
2018-11-26T08:00:20.296Z,67.80
2018-11-26T08:02:49.956Z,67.70
2018-11-26T08:05:20.375Z,67.70
2018-11-26T08:07:49.198Z,67.70
2018-11-26T08:10:22.321Z,67.70
2018-11-26T08:12:52.905Z,67.80
2018-11-26T08:15:23.352Z,67.80
2018-11-26T08:17:52.165Z,67.70
2018-11-26T08:20:21.045Z,67.60
2018-11-26T08:22:49.847Z,67.50
2018-11-26T08:25:22.146Z,67.50
2018-11-26T08:27:51.342Z,67.50
2018-11-26T08:30:24.748Z,67.50
2018-11-26T08:32:57.220Z,67.60
2018-11-26T08:35:26.329Z,67.50
2018-11-26T08:38:00.429Z,67.60
2018-11-26T08:40:30.243Z,67.50
2018-11-26T08:43:15.142Z,68.10
2018-11-26T08:45:57.952Z,67.50
2018-11-26T08:48:28.755Z,67.50
2018-11-26T08:51:00.407Z,67.50
2018-11-26T08:53:29.296Z,67.60
2018-11-26T08:55:58.118Z,67.50
2018-11-26T08:58:26.930Z,67.50
2018-11-26T09:01:01.120Z,67.50
2018-11-26T09:03:35.810Z,67.50
2018-11-26T09:06:05.437Z,67.50
2018-11-26T09:08:36.207Z,67.60
2018-11-26T09:11:06.719Z,67.50
2018-11-26T09:13:35.491Z,67.40
2018-11-26T09:16:04.828Z,67.30
2018-11-26T09:18:33.653Z,67.20
2018-11-26T09:21:02.485Z,67.20
2018-11-26T09:23:31.271Z,67.10
2018-11-26T09:26:00.059Z,67.00
2018-11-26T09:28:28.855Z,67.20
2018-11-26T09:30:57.683Z,67.00
2018-11-26T09:33:26.467Z,67.00
2018-11-26T09:35:55.252Z,66.90
2018-11-26T09:38:24.063Z,66.90
2018-11-26T09:40:52.878Z,66.80
2018-11-26T09:43:21.661Z,66.60
2018-11-26T09:45:50.472Z,66.60
2018-11-26T09:48:19.259Z,66.50
2018-11-26T09:50:48.066Z,66.30
2018-11-26T09:53:17.256Z,66.20
2018-11-26T09:55:46.061Z,65.90
2018-11-26T09:58:14.842Z,65.70
2018-11-26T10:00:43.721Z,65.60
2018-11-26T10:03:12.549Z,65.50
2018-11-26T10:05:41.382Z,65.40
2018-11-26T10:08:10.204Z,65.20
2018-11-26T10:10:39.045Z,64.80
2018-11-26T10:13:08.098Z,64.80
2018-11-26T10:15:37.181Z,64.80
2018-11-26T10:18:06.315Z,64.80
2018-11-26T10:20:35.129Z,64.60
2018-11-26T10:23:03.974Z,64.50
2018-11-26T10:25:32.762Z,64.50
2018-11-26T10:28:01.552Z,64.50
2018-11-26T10:30:30.387Z,64.50
2018-11-26T10:32:59.295Z,64.40
2018-11-26T10:35:28.095Z,64.10
2018-11-26T10:37:56.931Z,64.20
2018-11-26T10:40:27.493Z,64.20
2018-11-26T10:42:56.264Z,64.00
2018-11-26T10:45:25.682Z,64.00
2018-11-26T10:47:54.483Z,63.90
2018-11-26T10:50:26.110Z,63.60
2018-11-26T10:52:58.711Z,63.60
2018-11-26T10:55:33.300Z,63.50
2018-11-26T10:58:02.299Z,63.50
2018-11-26T11:00:36.589Z,63.50
2018-11-26T11:03:05.849Z,63.40
2018-11-26T11:05:35.592Z,63.50
2018-11-26T11:08:04.770Z,63.30
2018-11-26T11:10:34.097Z,63.30
2018-11-26T11:13:02.986Z,63.20
2018-11-26T11:15:31.820Z,63.30
2018-11-26T11:18:00.682Z,63.30
2018-11-26T11:20:30.115Z,63.30
2018-11-26T11:22:58.955Z,63.20
2018-11-26T11:25:27.808Z,63.10
2018-11-26T11:27:56.674Z,62.90
2018-11-26T11:30:27.362Z,62.50
2018-11-26T11:32:56.200Z,62.40
2018-11-26T11:35:25.010Z,62.30
2018-11-26T11:37:54.772Z,62.90
2018-11-26T11:40:28.077Z,62.10
2018-11-26T11:42:57.885Z,61.90
2018-11-26T11:45:27.476Z,61.50
2018-11-26T11:47:56.310Z,61.70
2018-11-26T11:50:25.673Z,61.70
2018-11-26T11:52:54.539Z,61.50
2018-11-26T11:55:24.904Z,61.60
2018-11-26T11:57:53.836Z,61.30
2018-11-26T12:00:36.562Z,61.10
2018-11-26T12:03:14.662Z,61.10
2018-11-26T12:05:43.509Z,61.00
2018-11-26T12:08:12.356Z,61.00
2018-11-26T12:10:41.188Z,61.00
2018-11-26T12:13:11.874Z,61.10
2018-11-26T12:15:45.455Z,61.20
2018-11-26T12:18:14.242Z,61.20
2018-11-26T12:20:43.375Z,61.10
2018-11-26T12:23:12.262Z,61.20
2018-11-26T12:25:41.051Z,61.00
2018-11-26T12:28:09.879Z,61.00
2018-11-26T12:30:44.240Z,61.10
2018-11-26T12:33:13.100Z,61.20
2018-11-26T12:35:41.944Z,61.30
2018-11-26T12:38:11.237Z,61.10
2018-11-26T12:40:40.143Z,61.00
2018-11-26T12:43:08.957Z,61.00
2018-11-26T12:45:37.784Z,61.20
2018-11-26T12:48:06.650Z,60.90
2018-11-26T12:50:35.485Z,60.70
2018-11-26T12:53:04.340Z,60.70
2018-11-26T12:55:33.450Z,60.60
2018-11-26T12:58:02.369Z,60.70
2018-11-26T13:00:31.216Z,60.70
2018-11-26T13:03:07.414Z,60.70
2018-11-26T13:05:36.269Z,60.90
2018-11-26T13:08:05.173Z,60.90
2018-11-26T13:10:34.028Z,60.60
2018-11-26T13:13:02.874Z,60.50
2018-11-26T13:15:31.717Z,60.50
2018-11-26T13:18:00.535Z,60.40
2018-11-26T13:20:30.693Z,60.40
2018-11-26T13:23:00.118Z,60.50
2018-11-26T13:25:33.762Z,60.50
2018-11-26T13:28:03.926Z,60.60
2018-11-26T13:30:38.087Z,60.60
2018-11-26T13:33:10.788Z,60.50
2018-11-26T13:35:40.274Z,60.50
2018-11-26T13:38:09.824Z,60.50
2018-11-26T13:40:38.687Z,60.50
2018-11-26T13:43:09.589Z,60.50
2018-11-26T13:45:40.908Z,60.60
2018-11-26T13:48:11.658Z,60.60
2018-11-26T13:50:44.421Z,60.70
2018-11-26T13:53:13.488Z,60.80
2018-11-26T13:55:42.286Z,60.70
2018-11-26T13:58:11.161Z,60.80
2018-11-26T14:00:39.999Z,60.80
2018-11-26T14:03:08.844Z,60.60
2018-11-26T14:05:37.668Z,60.60
2018-11-26T14:08:06.847Z,60.60
2018-11-26T14:10:35.669Z,60.60
2018-11-26T14:13:11.439Z,60.40
2018-11-26T14:15:40.310Z,60.50
2018-11-26T14:18:09.160Z,60.30
2018-11-26T14:20:38.005Z,60.30
2018-11-26T14:23:07.580Z,60.30
2018-11-26T14:25:36.373Z,60.30
2018-11-26T14:28:06.223Z,60.30
2018-11-26T14:30:34.253Z,60.40
2018-11-26T14:33:03.116Z,60.50
2018-11-26T14:35:32.041Z,60.40
2018-11-26T14:38:03.472Z,60.70
2018-11-26T14:40:34.814Z,60.60
2018-11-26T14:43:03.617Z,60.60
2018-11-26T14:45:32.452Z,60.60
2018-11-26T14:48:01.309Z,60.40
2018-11-26T14:50:30.164Z,60.40
2018-11-26T14:52:59.019Z,60.40
2018-11-26T14:55:29.762Z,60.70
2018-11-26T14:57:58.606Z,60.50
2018-11-26T15:00:27.409Z,60.40
2018-11-26T15:02:56.242Z,60.60
2018-11-26T15:05:25.077Z,60.60
2018-11-26T15:07:53.932Z,60.40
2018-11-26T15:10:24.161Z,60.40
2018-11-26T15:12:53.030Z,60.20
2018-11-26T15:15:24.317Z,60.10
2018-11-26T15:17:54.501Z,60.20
2018-11-26T15:20:26.481Z,60.00
2018-11-26T15:22:56.736Z,60.00
2018-11-26T15:25:28.582Z,60.00
2018-11-26T15:28:00.460Z,60.00
2018-11-26T15:30:29.289Z,59.80
2018-11-26T15:32:58.071Z,59.90
2018-11-26T15:35:27.122Z,59.90
2018-11-26T15:37:55.889Z,59.80
2018-11-26T15:40:24.685Z,60.00
2018-11-26T15:42:53.484Z,60.10
2018-11-26T15:45:23.908Z,59.90
2018-11-26T15:47:53.909Z,59.90
2018-11-26T15:50:22.745Z,60.00
2018-11-26T15:52:51.596Z,60.00
2018-11-26T15:55:21.727Z,60.00
2018-11-26T15:57:50.701Z,60.00
2018-11-26T16:00:20.987Z,60.00
2018-11-26T16:02:50.144Z,60.00
2018-11-26T16:05:22.700Z,60.00
2018-11-26T16:07:52.265Z,60.00
2018-11-26T16:10:21.064Z,60.00
2018-11-26T16:12:59.335Z,59.90
2018-11-26T16:15:32.170Z,60.00
2018-11-26T16:18:02.275Z,60.10
2018-11-26T16:20:31.193Z,60.20
2018-11-26T16:23:00.599Z,60.20
2018-11-26T16:25:29.897Z,60.10
2018-11-26T16:27:58.718Z,60.10
2018-11-26T16:30:27.529Z,60.10
2018-11-26T16:32:58.216Z,60.30
2018-11-26T16:35:30.134Z,60.40
2018-11-26T16:37:59.188Z,60.50
2018-11-26T16:40:27.984Z,60.50
2018-11-26T16:42:56.779Z,61.10
2018-11-26T16:45:27.945Z,60.30
2018-11-26T16:47:58.069Z,60.10
2018-11-26T16:50:29.898Z,60.20
2018-11-26T16:52:58.687Z,60.30
2018-11-26T16:55:27.496Z,60.20
2018-11-26T16:57:56.336Z,60.20
2018-11-26T17:00:27.843Z,60.10
2018-11-26T17:03:00.293Z,60.10
2018-11-26T17:05:31.709Z,60.00
2018-11-26T17:08:00.491Z,59.90
2018-11-26T17:10:29.672Z,59.80
2018-11-26T17:12:58.478Z,59.70
2018-11-26T17:15:27.281Z,59.80
2018-11-26T17:17:56.134Z,59.80
2018-11-26T17:20:24.981Z,59.60
2018-11-26T17:22:53.796Z,59.50
2018-11-26T17:25:22.612Z,59.60
2018-11-26T17:27:51.940Z,59.60
2018-11-26T17:30:24.229Z,59.60
2018-11-26T17:32:56.828Z,59.60
2018-11-26T17:35:25.666Z,59.50
2018-11-26T17:37:54.493Z,59.40
2018-11-26T17:40:24.397Z,59.30
2018-11-26T17:42:53.709Z,59.30
2018-11-26T17:45:23.298Z,59.20
2018-11-26T17:47:57.193Z,59.20
2018-11-26T17:50:33.232Z,59.10
2018-11-26T17:53:02.037Z,58.80
2018-11-26T17:55:30.843Z,58.90
2018-11-26T17:57:59.647Z,58.80
2018-11-26T18:00:31.684Z,58.70
2018-11-26T18:03:00.491Z,58.40
2018-11-26T18:05:30.909Z,58.40
2018-11-26T18:08:09.417Z,58.30
2018-11-26T18:10:38.433Z,58.20
2018-11-26T18:13:07.450Z,58.00
2018-11-26T18:15:36.300Z,57.80
2018-11-26T18:18:08.565Z,57.80
2018-11-26T18:20:37.379Z,57.70
2018-11-26T18:23:07.888Z,58.00
2018-11-26T18:25:36.724Z,57.50
2018-11-26T18:28:09.837Z,57.30
2018-11-26T18:30:40.854Z,57.00
2018-11-26T18:33:09.672Z,57.00
2018-11-26T18:35:39.028Z,57.00
2018-11-26T18:38:08.347Z,57.00
2018-11-26T18:40:38.837Z,57.00
2018-11-26T18:43:08.953Z,57.00
2018-11-26T18:45:39.175Z,56.90
2018-11-26T18:48:09.410Z,57.20
2018-11-26T18:50:38.688Z,56.70
2018-11-26T18:53:08.416Z,56.60
2018-11-26T18:55:38.534Z,56.50
2018-11-26T18:58:07.716Z,56.40
2018-11-26T19:00:46.095Z,56.50
2018-11-26T19:03:20.957Z,56.60
2018-11-26T19:05:51.816Z,56.60
2018-11-26T19:08:20.629Z,56.50
2018-11-26T19:10:52.411Z,56.50
2018-11-26T19:13:26.168Z,56.60
2018-11-26T19:16:02.588Z,56.40
2018-11-26T19:18:31.384Z,56.40
2018-11-26T19:21:00.205Z,56.40
2018-11-26T19:23:29.039Z,56.40
2018-11-26T19:25:57.865Z,56.40
2018-11-26T19:28:27.230Z,56.30
2018-11-26T19:30:56.272Z,56.40
2018-11-26T19:33:25.077Z,56.50
2018-11-26T19:35:53.893Z,56.60
2018-11-26T19:38:22.767Z,57.40
2018-11-26T19:40:51.684Z,57.10
2018-11-26T19:43:20.497Z,57.40
2018-11-26T19:45:49.362Z,57.60
2018-11-26T19:48:18.181Z,57.70
2018-11-26T19:50:47.059Z,57.80
2018-11-26T19:53:16.214Z,57.90
2018-11-26T19:55:45.062Z,58.10
2018-11-26T19:58:13.903Z,58.30
2018-11-26T20:00:42.772Z,58.40
2018-11-26T20:03:21.040Z,58.60
2018-11-26T20:06:06.650Z,58.80
2018-11-26T20:08:35.494Z,58.90
2018-11-26T20:11:04.313Z,59.00
2018-11-26T20:13:33.457Z,59.10
2018-11-26T20:16:02.296Z,59.20
2018-11-26T20:18:31.131Z,59.40
2018-11-26T20:20:59.977Z,59.50
2018-11-26T20:23:28.860Z,59.70
2018-11-26T20:25:57.713Z,59.50
2018-11-26T20:28:26.757Z,59.70
2018-11-26T20:30:55.623Z,59.80
2018-11-26T20:33:24.768Z,59.90
2018-11-26T20:35:53.739Z,59.90
2018-11-26T20:38:22.536Z,60.60
2018-11-26T20:40:51.357Z,60.00
2018-11-26T20:43:20.184Z,60.00
2018-11-26T20:45:50.141Z,60.00
2018-11-26T20:48:18.944Z,60.00
2018-11-26T20:50:50.705Z,60.10
2018-11-26T20:53:22.372Z,60.10
2018-11-26T20:55:51.538Z,60.10
2018-11-26T20:58:20.328Z,60.10
2018-11-26T21:00:49.181Z,60.10
2018-11-26T21:03:18.023Z,60.30
2018-11-26T21:05:46.842Z,60.40
2018-11-26T21:08:15.740Z,60.50
2018-11-26T21:10:44.555Z,60.60
2018-11-26T21:13:16.883Z,60.70
2018-11-26T21:15:42.228Z,60.70
2018-11-26T21:18:13.344Z,60.80
2018-11-26T21:20:50.528Z,61.00
2018-11-26T21:23:26.669Z,61.10
2018-11-26T21:25:57.286Z,61.30
2018-11-26T21:28:26.064Z,61.40
2018-11-26T21:30:55.210Z,61.60
2018-11-26T21:33:24.017Z,61.60
2018-11-26T21:35:52.819Z,61.50
2018-11-26T21:38:22.132Z,61.60
2018-11-26T21:40:50.975Z,61.70
2018-11-26T21:43:19.764Z,61.80
2018-11-26T21:45:54.189Z,61.90
2018-11-26T21:48:23.034Z,61.90
2018-11-26T21:50:51.905Z,61.80
2018-11-26T21:53:20.711Z,62.50
2018-11-26T21:55:49.516Z,62.10
2018-11-26T21:58:18.372Z,61.90
2018-11-26T22:00:49.053Z,62.10
2018-11-26T22:03:17.922Z,62.20
2018-11-26T22:05:46.776Z,62.10
2018-11-26T22:08:15.593Z,62.60
2018-11-26T22:10:44.892Z,62.20
2018-11-26T22:13:16.120Z,62.30
2018-11-26T22:15:44.950Z,62.40
2018-11-26T22:18:13.760Z,62.30
2018-11-26T22:20:43.009Z,62.40
2018-11-26T22:23:11.823Z,62.40
2018-11-26T22:25:40.628Z,62.50
2018-11-26T22:28:10.875Z,62.60
2018-11-26T22:30:40.303Z,62.60
2018-11-26T22:33:09.657Z,62.70
2018-11-26T22:35:38.724Z,62.70
2018-11-26T22:38:07.604Z,62.70
2018-11-26T22:40:36.412Z,63.50
2018-11-26T22:43:06.153Z,62.70
2018-11-26T22:45:35.196Z,62.80
2018-11-26T22:48:09.867Z,62.80
2018-11-26T22:50:40.479Z,62.80
2018-11-26T22:53:09.916Z,63.00
2018-11-26T22:55:38.772Z,63.00
2018-11-26T22:58:11.753Z,62.90
2018-11-26T23:00:47.717Z,63.10
2018-11-26T23:03:18.661Z,63.20
2018-11-26T23:05:47.481Z,63.20
2018-11-26T23:08:16.271Z,63.30
2018-11-26T23:10:45.084Z,63.50
2018-11-26T23:13:13.893Z,63.50
2018-11-26T23:15:42.691Z,63.50
2018-11-26T23:18:11.534Z,63.60
2018-11-26T23:20:40.353Z,63.70
2018-11-26T23:23:09.172Z,64.40
2018-11-26T23:25:37.978Z,63.70
2018-11-26T23:28:06.789Z,63.80
2018-11-26T23:30:35.596Z,63.90
2018-11-26T23:33:05.865Z,63.90
2018-11-26T23:35:34.941Z,64.10
2018-11-26T23:38:03.730Z,64.20
2018-11-26T23:40:32.570Z,64.10
2018-11-26T23:43:04.453Z,64.20
2018-11-26T23:45:33.267Z,64.30
2018-11-26T23:48:02.162Z,64.40
2018-11-26T23:50:30.968Z,64.40
2018-11-26T23:52:59.784Z,64.50
2018-11-26T23:55:28.715Z,64.50
2018-11-26T23:57:57.619Z,64.50
